This is the latest recevied weather packets stored in our database for station/object K5OLV. If no packets are shown the sender has not sent any weather packets the latest 1 day(s).
| Time | Temp. | Humidity | Pressure | Rain* | Wind** | Luminosity | Snow |
|---|---|---|---|---|---|---|---|
| 1777993103 | 18.89° C | 68% | 1013 hPa | 0 mm | 0.89 m/s, 252° | 679 W/m² | - |
| 1777992802 | 18.89° C | 67% | 1012.8 hPa | 0 mm | 1.34 m/s, 17° | 705 W/m² | - |
| 1777992499 | 18.89° C | 68% | 1013 hPa | 0 mm | 0.45 m/s, 309° | 646 W/m² | - |
| 1777992197 | 18.33° C | 68% | 1012.8 hPa | 0 mm | 0.89 m/s, 246° | 707 W/m² | - |
| 1777991894 | 18.33° C | 68% | 1012.7 hPa | 0 mm | 1.34 m/s, 216° | 656 W/m² | - |
| 1777991592 | 17.78° C | 69% | 1012.9 hPa | 0 mm | 0.89 m/s, 177° | 489 W/m² | - |
| 1777991288 | 17.78° C | 70% | 1012.9 hPa | 0 mm | 0.45 m/s, 264° | 544 W/m² | - |
| 1777990986 | 18.33° C | 69% | 1013.2 hPa | 0 mm | 0.45 m/s, 310° | 485 W/m² | - |
| 1777990683 | 17.78° C | 71% | 1012.7 hPa | 0 mm | 0.45 m/s, 338° | 608 W/m² | - |
| 1777990380 | 17.78° C | 70% | 1012.9 hPa | 0 mm | 0.89 m/s, 203° | 613 W/m² | - |
| 1777990076 | 17.78° C | 69% | 1012.7 hPa | 0 mm | 0.45 m/s, 281° | 586 W/m² | - |
| 1777989773 | 17.22° C | 71% | 1012.9 hPa | 0 mm | 0.89 m/s, 352° | 538 W/m² | - |
| 1777989470 | 16.67° C | 72% | 1012.9 hPa | 0 mm | 0.45 m/s, 333° | 509 W/m² | - |
| 1777989166 | 17.22° C | 72% | 1012.9 hPa | 0 mm | 0.45 m/s, 252° | 416 W/m² | - |
| 1777988862 | 17.22° C | 71% | 1012.7 hPa | 0 mm | 0.45 m/s, 299° | 337 W/m² | - |
| 1777988560 | 17.22° C | 69% | 1012.7 hPa | 0 mm | 0.89 m/s, 186° | 403 W/m² | - |
| 1777988256 | 17.22° C | 69% | 1012.8 hPa | 0 mm | 0 m/s | 420 W/m² | - |
| 1777987953 | 16.67° C | 73% | 1012.7 hPa | 0 mm | 0.45 m/s, 301° | 378 W/m² | - |
| 1777987648 | 16.67° C | 73% | 1013.1 hPa | 0 mm | 0.89 m/s, 317° | 234 W/m² | - |
| 1777987346 | 16.11° C | 73% | 1012.9 hPa | 0 mm | 0.45 m/s, 162° | 282 W/m² | - |
| 1777987043 | 16.67° C | 72% | 1012.9 hPa | 0 mm | 0 m/s | 199 W/m² | - |
| 1777986741 | 16.11° C | 72% | 1012.5 hPa | 0 mm | 0.45 m/s, 187° | 229 W/m² | - |
| 1777986438 | 16.11° C | 72% | 1012.5 hPa | 0 mm | 0.45 m/s, 240° | 210 W/m² | - |
| 1777986137 | 16.11° C | 72% | 1012.7 hPa | 0 mm | 0 m/s | 193 W/m² | - |
| 1777985833 | 16.11° C | 71% | 1012.8 hPa | 0 mm | 0 m/s | 271 W/m² | - |
* Rain latest hour (hover to see other rain measurements)
** Current wind speed in m/s (hover to see current wind gust speed)